sensor_id;sensor_type;location;lat;lon;timestamp;pressure;altitude;pressure_sealevel;temperature;humidity
76311;BME280;65120;59.304;18.294;2023-04-03T00:00:30;103573.84;;;-1.72;58.40
76311;BME280;65120;59.304;18.294;2023-04-03T00:02:57;103565.16;;;-1.74;58.53
76311;BME280;65120;59.304;18.294;2023-04-03T00:05:24;103564.25;;;-1.74;58.93
76311;BME280;65120;59.304;18.294;2023-04-03T00:07:53;103567.72;;;-1.74;58.78
76311;BME280;65120;59.304;18.294;2023-04-03T00:10:20;103563.28;;;-1.76;58.90
76311;BME280;65120;59.304;18.294;2023-04-03T00:12:47;103564.91;;;-1.77;59.17
76311;BME280;65120;59.304;18.294;2023-04-03T00:15:13;103568.28;;;-1.78;58.83
76311;BME280;65120;59.304;18.294;2023-04-03T00:17:40;103562.25;;;-1.78;58.70
76311;BME280;65120;59.304;18.294;2023-04-03T00:20:08;103561.13;;;-1.82;59.22
76311;BME280;65120;59.304;18.294;2023-04-03T00:22:35;103566.00;;;-1.85;59.22
76311;BME280;65120;59.304;18.294;2023-04-03T00:25:04;103572.13;;;-1.83;59.26
76311;BME280;65120;59.304;18.294;2023-04-03T00:27:31;103563.44;;;-1.85;58.98
76311;BME280;65120;59.304;18.294;2023-04-03T00:29:58;103572.69;;;-1.87;59.08
76311;BME280;65120;59.304;18.294;2023-04-03T00:32:24;103570.13;;;-1.87;59.11
76311;BME280;65120;59.304;18.294;2023-04-03T00:34:51;103572.69;;;-1.87;59.39
76311;BME280;65120;59.304;18.294;2023-04-03T00:37:18;103581.13;;;-1.88;59.29
76311;BME280;65120;59.304;18.294;2023-04-03T00:39:45;103575.03;;;-1.90;59.40
76311;BME280;65120;59.304;18.294;2023-04-03T00:42:13;103577.59;;;-1.90;59.30
76311;BME280;65120;59.304;18.294;2023-04-03T00:47:45;103577.34;;;-1.93;59.26
76311;BME280;65120;59.304;18.294;2023-04-03T00:50:12;103568.16;;;-2.01;59.33
76311;BME280;65120;59.304;18.294;2023-04-03T00:52:39;103577.13;;;-1.96;59.51
76311;BME280;65120;59.304;18.294;2023-04-03T00:55:08;103572.00;;;-1.96;59.64
76311;BME280;65120;59.304;18.294;2023-04-03T00:57:37;103576.09;;;-1.98;59.85
76311;BME280;65120;59.304;18.294;2023-04-03T01:00:07;103571.72;;;-1.99;59.86
76311;BME280;65120;59.304;18.294;2023-04-03T01:02:36;103573.28;;;-2.01;59.90
76311;BME280;65120;59.304;18.294;2023-04-03T01:05:03;103574.19;;;-2.01;59.65
76311;BME280;65120;59.304;18.294;2023-04-03T01:07:31;103577.63;;;-2.00;59.79
76311;BME280;65120;59.304;18.294;2023-04-03T01:10:05;103571.47;;;-2.03;59.48
76311;BME280;65120;59.304;18.294;2023-04-03T01:12:35;103574.03;;;-2.03;59.95
76311;BME280;65120;59.304;18.294;2023-04-03T01:15:06;103575.72;;;-2.03;59.56
76311;BME280;65120;59.304;18.294;2023-04-03T01:17:34;103568.81;;;-2.04;59.60
76311;BME280;65120;59.304;18.294;2023-04-03T01:23:10;103579.81;;;-2.05;60.09
76311;BME280;65120;59.304;18.294;2023-04-03T01:25:42;103569.47;;;-2.07;59.88
76311;BME280;65120;59.304;18.294;2023-04-03T01:28:11;103572.69;;;-2.09;59.94
76311;BME280;65120;59.304;18.294;2023-04-03T01:30:44;103573.47;;;-2.10;60.47
76311;BME280;65120;59.304;18.294;2023-04-03T01:33:14;103568.13;;;-2.13;60.04
76311;BME280;65120;59.304;18.294;2023-04-03T01:35:41;103573.22;;;-2.13;60.35
76311;BME280;65120;59.304;18.294;2023-04-03T01:38:08;103573.09;;;-2.15;60.34
76311;BME280;65120;59.304;18.294;2023-04-03T01:40:35;103573.88;;;-2.16;59.96
76311;BME280;65120;59.304;18.294;2023-04-03T01:43:02;103579.00;;;-2.16;60.19
76311;BME280;65120;59.304;18.294;2023-04-03T01:45:29;103582.31;;;-2.17;60.19
76311;BME280;65120;59.304;18.294;2023-04-03T01:47:56;103586.56;;;-2.17;60.49
76311;BME280;65120;59.304;18.294;2023-04-03T01:50:24;103585.66;;;-2.18;60.68
76311;BME280;65120;59.304;18.294;2023-04-03T01:52:51;103583.88;;;-2.19;60.31
76311;BME280;65120;59.304;18.294;2023-04-03T01:55:18;103577.84;;;-2.19;60.59
76311;BME280;65120;59.304;18.294;2023-04-03T01:57:45;103581.97;;;-2.21;60.67
76311;BME280;65120;59.304;18.294;2023-04-03T02:00:13;103581.84;;;-2.23;60.72
76311;BME280;65120;59.304;18.294;2023-04-03T02:02:40;103582.63;;;-2.24;60.63
76311;BME280;65120;59.304;18.294;2023-04-03T02:05:07;103578.41;;;-2.23;61.04
76311;BME280;65120;59.304;18.294;2023-04-03T02:07:35;103586.72;;;-2.26;61.15
76311;BME280;65120;59.304;18.294;2023-04-03T02:10:03;103579.69;;;-2.29;60.94
76311;BME280;65120;59.304;18.294;2023-04-03T02:12:29;103580.72;;;-2.27;60.76
76311;BME280;65120;59.304;18.294;2023-04-03T02:14:56;103587.50;;;-2.27;60.93
76311;BME280;65120;59.304;18.294;2023-04-03T02:17:23;103588.25;;;-2.28;60.75
76311;BME280;65120;59.304;18.294;2023-04-03T02:19:50;103585.69;;;-2.28;60.92
76311;BME280;65120;59.304;18.294;2023-04-03T02:22:17;103570.41;;;-2.38;61.04
76311;BME280;65120;59.304;18.294;2023-04-03T02:24:45;103585.59;;;-2.30;61.20
76311;BME280;65120;59.304;18.294;2023-04-03T02:27:12;103583.03;;;-2.30;61.17
76311;BME280;65120;59.304;18.294;2023-04-03T02:29:40;103581.13;;;-2.32;61.05
76311;BME280;65120;59.304;18.294;2023-04-03T02:32:06;103582.91;;;-2.31;61.29
76311;BME280;65120;59.304;18.294;2023-04-03T02:34:33;103593.16;;;-2.31;61.54
76311;BME280;65120;59.304;18.294;2023-04-03T02:37:00;103582.91;;;-2.31;61.40
76311;BME280;65120;59.304;18.294;2023-04-03T02:39:27;103588.03;;;-2.31;61.16
76311;BME280;65120;59.304;18.294;2023-04-03T02:41:55;103587.13;;;-2.32;61.71
76311;BME280;65120;59.304;18.294;2023-04-03T02:44:22;103591.38;;;-2.32;61.69
76311;BME280;65120;59.304;18.294;2023-04-03T02:46:49;103587.78;;;-2.34;61.55
76311;BME280;65120;59.304;18.294;2023-04-03T02:49:16;103587.78;;;-2.34;61.42
76311;BME280;65120;59.304;18.294;2023-04-03T02:51:44;103592.16;;;-2.33;62.02
76311;BME280;65120;59.304;18.294;2023-04-03T02:54:11;103587.78;;;-2.34;61.85
76311;BME280;65120;59.304;18.294;2023-04-03T02:56:38;103580.66;;;-2.38;61.91
76311;BME280;65120;59.304;18.294;2023-04-03T02:59:07;103593.03;;;-2.33;61.92
76311;BME280;65120;59.304;18.294;2023-04-03T03:01:34;103577.06;;;-2.40;62.17
76311;BME280;65120;59.304;18.294;2023-04-03T03:04:01;103593.16;;;-2.31;61.86
76311;BME280;65120;59.304;18.294;2023-04-03T03:06:28;103592.25;;;-2.32;61.92
76311;BME280;65120;59.304;18.294;2023-04-03T03:08:55;103591.38;;;-2.32;62.14
76311;BME280;65120;59.304;18.294;2023-04-03T03:11:22;103591.38;;;-2.32;62.17
76311;BME280;65120;59.304;18.294;2023-04-03T03:13:49;103603.38;;;-2.31;62.21
76311;BME280;65120;59.304;18.294;2023-04-03T03:16:17;103601.59;;;-2.32;61.85
76311;BME280;65120;59.304;18.294;2023-04-03T03:18:44;103605.84;;;-2.33;62.03
76311;BME280;65120;59.304;18.294;2023-04-03T03:21:11;103600.72;;;-2.33;62.23
76311;BME280;65120;59.304;18.294;2023-04-03T03:23:38;103592.91;;;-2.34;62.30
76311;BME280;65120;59.304;18.294;2023-04-03T03:26:07;103598.66;;;-2.37;62.45
76311;BME280;65120;59.304;18.294;2023-04-03T03:28:34;103599.56;;;-2.36;62.41
76311;BME280;65120;59.304;18.294;2023-04-03T03:31:02;103598.66;;;-2.37;62.43
76311;BME280;65120;59.304;18.294;2023-04-03T03:33:31;103605.59;;;-2.36;62.55
76311;BME280;65120;59.304;18.294;2023-04-03T03:35:58;103602.13;;;-2.36;62.49
76311;BME280;65120;59.304;18.294;2023-04-03T03:38:25;103603.78;;;-2.37;62.48
76311;BME280;65120;59.304;18.294;2023-04-03T03:40:52;103605.47;;;-2.37;62.49
76311;BME280;65120;59.304;18.294;2023-04-03T03:43:19;103601.13;;;-2.38;62.49
76311;BME280;65120;59.304;18.294;2023-04-03T03:45:49;103614.91;;;-2.36;62.46
76311;BME280;65120;59.304;18.294;2023-04-03T03:48:16;103608.81;;;-2.38;62.45
76311;BME280;65120;59.304;18.294;2023-04-03T03:50:45;103606.00;;;-2.41;62.69
76311;BME280;65120;59.304;18.294;2023-04-03T03:53:12;103612.91;;;-2.40;62.61
76311;BME280;65120;59.304;18.294;2023-04-03T03:55:39;103615.34;;;-2.42;62.39
76311;BME280;65120;59.304;18.294;2023-04-03T03:58:06;103621.38;;;-2.41;62.54
76311;BME280;65120;59.304;18.294;2023-04-03T04:00:32;103622.13;;;-2.42;62.65
76311;BME280;65120;59.304;18.294;2023-04-03T04:02:59;103617.00;;;-2.42;62.70
76311;BME280;65120;59.304;18.294;2023-04-03T04:05:27;103618.66;;;-2.43;62.55
76311;BME280;65120;59.304;18.294;2023-04-03T04:07:55;103618.56;;;-2.44;62.73
76311;BME280;65120;59.304;18.294;2023-04-03T04:10:22;103619.31;;;-2.45;62.67
76311;BME280;65120;59.304;18.294;2023-04-03T04:12:49;103620.09;;;-2.46;63.19
76311;BME280;65120;59.304;18.294;2023-04-03T04:15:16;103622.66;;;-2.46;62.77
76311;BME280;65120;59.304;18.294;2023-04-03T04:17:44;103627.78;;;-2.46;62.77
76311;BME280;65120;59.304;18.294;2023-04-03T04:20:11;103630.19;;;-2.48;62.80
76311;BME280;65120;59.304;18.294;2023-04-03T04:22:38;103633.53;;;-2.49;62.64
76311;BME280;65120;59.304;18.294;2023-04-03T04:25:07;103635.19;;;-2.50;62.97
76311;BME280;65120;59.304;18.294;2023-04-03T04:27:34;103625.72;;;-2.51;62.74
76311;BME280;65120;59.304;18.294;2023-04-03T04:30:02;103634.31;;;-2.50;62.63
76311;BME280;65120;59.304;18.294;2023-04-03T04:32:29;103642.88;;;-2.50;62.77
76311;BME280;65120;59.304;18.294;2023-04-03T04:34:56;103644.56;;;-2.50;62.90
76311;BME280;65120;59.304;18.294;2023-04-03T04:37:23;103639.28;;;-2.52;62.88
76311;BME280;65120;59.304;18.294;2023-04-03T04:39:50;103633.28;;;-2.52;62.88
76311;BME280;65120;59.304;18.294;2023-04-03T04:42:18;103634.19;;;-2.52;62.84
76311;BME280;65120;59.304;18.294;2023-04-03T04:44:45;103634.97;;;-2.53;63.04
76311;BME280;65120;59.304;18.294;2023-04-03T04:47:12;103631.50;;;-2.53;63.03
76311;BME280;65120;59.304;18.294;2023-04-03T04:49:39;103637.53;;;-2.53;62.99
76311;BME280;65120;59.304;18.294;2023-04-03T04:52:06;103631.50;;;-2.53;63.00
76311;BME280;65120;59.304;18.294;2023-04-03T04:54:33;103630.59;;;-2.54;63.13
76311;BME280;65120;59.304;18.294;2023-04-03T04:57:00;103637.53;;;-2.53;63.33
76311;BME280;65120;59.304;18.294;2023-04-03T04:59:28;103637.63;;;-2.51;63.24
76311;BME280;65120;59.304;18.294;2023-04-03T05:01:55;103626.63;;;-2.50;63.24
76311;BME280;65120;59.304;18.294;2023-04-03T05:04:22;103630.97;;;-2.49;63.25
76311;BME280;65120;59.304;18.294;2023-04-03T05:06:49;103632.88;;;-2.46;63.48
76311;BME280;65120;59.304;18.294;2023-04-03T05:09:16;103636.59;;;-2.43;63.44
76311;BME280;65120;59.304;18.294;2023-04-03T05:11:43;103630.81;;;-2.40;63.39
76311;BME280;65120;59.304;18.294;2023-04-03T05:14:10;103637.72;;;-2.39;63.27
76311;BME280;65120;59.304;18.294;2023-04-03T05:16:38;103632.72;;;-2.38;63.43
76311;BME280;65120;59.304;18.294;2023-04-03T05:19:05;103632.84;;;-2.36;63.36
76311;BME280;65120;59.304;18.294;2023-04-03T05:21:32;103633.88;;;-2.34;63.32
76311;BME280;65120;59.304;18.294;2023-04-03T05:23:59;103632.19;;;-2.34;63.35
76311;BME280;65120;59.304;18.294;2023-04-03T05:26:28;103638.47;;;-2.30;63.63
76311;BME280;65120;59.304;18.294;2023-04-03T05:28:55;103630.91;;;-2.29;63.48
76311;BME280;65120;59.304;18.294;2023-04-03T05:31:22;103635.38;;;-2.26;63.43
76311;BME280;65120;59.304;18.294;2023-04-03T05:33:50;103627.81;;;-2.24;63.37
76311;BME280;65120;59.304;18.294;2023-04-03T05:36:18;103627.94;;;-2.23;63.60
76311;BME280;65120;59.304;18.294;2023-04-03T05:38:45;103628.19;;;-2.20;63.64
76311;BME280;65120;59.304;18.294;2023-04-03T05:41:12;103615.50;;;-2.18;63.71
76311;BME280;65120;59.304;18.294;2023-04-03T05:43:39;103624.19;;;-2.16;63.58
76311;BME280;65120;59.304;18.294;2023-04-03T05:46:09;103628.66;;;-2.14;63.61
76311;BME280;65120;59.304;18.294;2023-04-03T05:48:36;103624.69;;;-2.10;63.73
76311;BME280;65120;59.304;18.294;2023-04-03T05:51:06;103627.34;;;-2.09;63.34
76311;BME280;65120;59.304;18.294;2023-04-03T05:53:35;103629.41;;;-2.05;63.78
76311;BME280;65120;59.304;18.294;2023-04-03T05:56:03;103626.94;;;-2.03;63.73
76311;BME280;65120;59.304;18.294;2023-04-03T05:58:30;103638.31;;;-1.99;63.59
76311;BME280;65120;59.304;18.294;2023-04-03T06:00:57;103634.34;;;-1.96;63.77
76311;BME280;65120;59.304;18.294;2023-04-03T06:03:24;103633.72;;;-1.93;63.70
76311;BME280;65120;59.304;18.294;2023-04-03T06:05:51;103639.06;;;-1.90;63.60
76311;BME280;65120;59.304;18.294;2023-04-03T06:08:20;103627.47;;;-1.85;63.92
76311;BME280;65120;59.304;18.294;2023-04-03T06:10:47;103640.44;;;-1.84;63.96
76311;BME280;65120;59.304;18.294;2023-04-03T06:13:14;103637.31;;;-1.79;64.08
76311;BME280;65120;59.304;18.294;2023-04-03T06:15:40;103639.38;;;-1.75;63.93
76311;BME280;65120;59.304;18.294;2023-04-03T06:18:07;103642.25;;;-1.71;63.82
76311;BME280;65120;59.304;18.294;2023-04-03T06:20:35;103633.16;;;-1.67;64.13
76311;BME280;65120;59.304;18.294;2023-04-03T06:23:01;103637.00;;;-1.62;64.13
76311;BME280;65120;59.304;18.294;2023-04-03T06:25:30;103638.09;;;-1.59;64.26
76311;BME280;65120;59.304;18.294;2023-04-03T06:27:57;103638.34;;;-1.55;64.21
76311;BME280;65120;59.304;18.294;2023-04-03T06:30:24;103639.59;;;-1.50;63.95
76311;BME280;65120;59.304;18.294;2023-04-03T06:32:51;103636.59;;;-1.45;64.08
76311;BME280;65120;59.304;18.294;2023-04-03T06:35:18;103633.50;;;-1.41;64.24
76311;BME280;65120;59.304;18.294;2023-04-03T06:37:44;103632.97;;;-1.37;64.43
76311;BME280;65120;59.304;18.294;2023-04-03T06:40:18;103636.66;;;-1.33;64.00
76311;BME280;65120;59.304;18.294;2023-04-03T06:42:47;103632.78;;;-1.28;64.35
76311;BME280;65120;59.304;18.294;2023-04-03T06:45:15;103632.88;;;-1.26;64.64
76311;BME280;65120;59.304;18.294;2023-04-03T06:47:42;103640.25;;;-1.19;64.55
76311;BME280;65120;59.304;18.294;2023-04-03T06:50:10;103637.13;;;-1.15;64.11
76311;BME280;65120;59.304;18.294;2023-04-03T06:52:39;103640.16;;;-1.09;64.55
76311;BME280;65120;59.304;18.294;2023-04-03T06:55:07;103637.06;;;-1.05;64.36
76311;BME280;65120;59.304;18.294;2023-04-03T06:57:35;103645.22;;;-0.99;64.60
76311;BME280;65120;59.304;18.294;2023-04-03T07:00:04;103639.50;;;-0.95;64.92
76311;BME280;65120;59.304;18.294;2023-04-03T07:02:32;103639.06;;;-0.89;64.61
76311;BME280;65120;59.304;18.294;2023-04-03T07:04:59;103636.97;;;-0.83;64.06
76311;BME280;65120;59.304;18.294;2023-04-03T07:07:26;103631.81;;;-0.83;64.87
76311;BME280;65120;59.304;18.294;2023-04-03T07:09:53;103641.22;;;-0.72;64.57
76311;BME280;65120;59.304;18.294;2023-04-03T07:12:20;103639.88;;;-0.66;64.63
76311;BME280;65120;59.304;18.294;2023-04-03T07:14:47;103642.13;;;-0.59;65.07
76311;BME280;65120;59.304;18.294;2023-04-03T07:17:15;103642.81;;;-0.50;64.98
76311;BME280;65120;59.304;18.294;2023-04-03T07:19:42;103634.53;;;-0.46;65.23
76311;BME280;65120;59.304;18.294;2023-04-03T07:22:09;103635.44;;;-0.34;64.67
76311;BME280;65120;59.304;18.294;2023-04-03T07:24:36;103641.00;;;-0.28;65.07
76311;BME280;65120;59.304;18.294;2023-04-03T07:27:03;103639.09;;;-0.18;64.34
76311;BME280;65120;59.304;18.294;2023-04-03T07:29:30;103635.38;;;-0.10;64.92
76311;BME280;65120;59.304;18.294;2023-04-03T07:31:57;103633.38;;;-0.03;64.98
76311;BME280;65120;59.304;18.294;2023-04-03T07:34:26;103636.81;;;0.10;65.25
76311;BME280;65120;59.304;18.294;2023-04-03T07:36:53;103636.88;;;0.23;64.71
76311;BME280;65120;59.304;18.294;2023-04-03T07:39:20;103635.25;;;0.37;64.93
76311;BME280;65120;59.304;18.294;2023-04-03T07:41:47;103636.00;;;0.48;64.27
76311;BME280;65120;59.304;18.294;2023-04-03T07:44:13;103638.50;;;0.59;64.47
76311;BME280;65120;59.304;18.294;2023-04-03T07:46:40;103638.44;;;0.71;64.17
76311;BME280;65120;59.304;18.294;2023-04-03T07:49:07;103639.19;;;0.82;64.33
76311;BME280;65120;59.304;18.294;2023-04-03T07:51:36;103627.16;;;0.94;64.08
76311;BME280;65120;59.304;18.294;2023-04-03T07:54:03;103633.09;;;1.06;63.13
76311;BME280;65120;59.304;18.294;2023-04-03T07:56:30;103633.91;;;1.19;63.32
76311;BME280;65120;59.304;18.294;2023-04-03T07:58:57;103635.44;;;1.28;63.25
76311;BME280;65120;59.304;18.294;2023-04-03T08:01:24;103629.28;;;1.40;62.85
76311;BME280;65120;59.304;18.294;2023-04-03T08:03:51;103632.66;;;1.52;62.80
76311;BME280;65120;59.304;18.294;2023-04-03T08:06:18;103623.22;;;1.66;62.91
76311;BME280;65120;59.304;18.294;2023-04-03T08:08:46;103633.44;;;1.77;62.89
76311;BME280;65120;59.304;18.294;2023-04-03T08:11:13;103600.44;;;1.72;61.39
76311;BME280;65120;59.304;18.294;2023-04-03T08:13:40;103633.19;;;2.01;62.43
76311;BME280;65120;59.304;18.294;2023-04-03T08:16:10;103630.56;;;2.14;61.25
76311;BME280;65120;59.304;18.294;2023-04-03T08:18:37;103635.78;;;2.29;60.46
76311;BME280;65120;59.304;18.294;2023-04-03T08:21:07;103627.09;;;2.42;60.59
76311;BME280;65120;59.304;18.294;2023-04-03T08:23:34;103621.81;;;2.54;60.01
76311;BME280;65120;59.304;18.294;2023-04-03T08:26:07;103625.00;;;2.64;59.94
76311;BME280;65120;59.304;18.294;2023-04-03T08:28:34;103619.59;;;2.75;59.38
76311;BME280;65120;59.304;18.294;2023-04-03T08:31:05;103611.22;;;2.79;59.14
76311;BME280;65120;59.304;18.294;2023-04-03T08:33:33;103618.63;;;2.87;58.14
76311;BME280;65120;59.304;18.294;2023-04-03T08:36:02;103613.84;;;2.93;59.02
76311;BME280;65120;59.304;18.294;2023-04-03T08:38:29;103612.59;;;3.02;57.99
76311;BME280;65120;59.304;18.294;2023-04-03T08:41:01;103588.81;;;2.92;57.58
76311;BME280;65120;59.304;18.294;2023-04-03T08:43:36;103622.03;;;3.16;56.89
76311;BME280;65120;59.304;18.294;2023-04-03T08:46:06;103601.44;;;3.18;57.69
76311;BME280;65120;59.304;18.294;2023-04-03T08:48:41;103608.94;;;3.28;56.57
76311;BME280;65120;59.304;18.294;2023-04-03T08:51:11;103605.53;;;3.29;57.54
76311;BME280;65120;59.304;18.294;2023-04-03T08:53:42;103605.00;;;3.34;57.26
76311;BME280;65120;59.304;18.294;2023-04-03T08:56:10;103603.41;;;3.36;57.31
76311;BME280;65120;59.304;18.294;2023-04-03T08:58:46;103600.97;;;3.40;56.31
76311;BME280;65120;59.304;18.294;2023-04-03T09:01:19;103608.81;;;3.41;56.86
76311;BME280;65120;59.304;18.294;2023-04-03T09:03:46;103575.59;;;3.32;56.03
76311;BME280;65120;59.304;18.294;2023-04-03T09:06:15;103603.19;;;3.48;56.52
76311;BME280;65120;59.304;18.294;2023-04-03T09:08:45;103601.50;;;3.49;55.38
76311;BME280;65120;59.304;18.294;2023-04-03T09:11:20;103595.44;;;3.48;55.56
76311;BME280;65120;59.304;18.294;2023-04-03T09:13:54;103606.00;;;3.53;55.72
76311;BME280;65120;59.304;18.294;2023-04-03T09:16:32;103598.25;;;3.53;55.63
76311;BME280;65120;59.304;18.294;2023-04-03T09:19:09;103570.69;;;3.37;55.25
76311;BME280;65120;59.304;18.294;2023-04-03T09:21:39;103606.13;;;3.54;55.13
76311;BME280;65120;59.304;18.294;2023-04-03T09:24:09;103600.84;;;3.53;55.11
76311;BME280;65120;59.304;18.294;2023-04-03T09:26:41;103600.06;;;3.54;54.93
76311;BME280;65120;59.304;18.294;2023-04-03T09:29:14;103574.44;;;3.42;53.67
76311;BME280;65120;59.304;18.294;2023-04-03T09:31:45;103589.78;;;3.55;54.39
76311;BME280;65120;59.304;18.294;2023-04-03T09:34:18;103585.59;;;3.57;54.83
76311;BME280;65120;59.304;18.294;2023-04-03T09:36:48;103584.72;;;3.57;54.38
76311;BME280;65120;59.304;18.294;2023-04-03T09:39:18;103586.59;;;3.59;54.47
76311;BME280;65120;59.304;18.294;2023-04-03T09:42:00;103584.06;;;3.61;54.36
76311;BME280;65120;59.304;18.294;2023-04-03T09:44:30;103582.47;;;3.63;53.08
76311;BME280;65120;59.304;18.294;2023-04-03T09:46:58;103575.59;;;3.64;52.45
76311;BME280;65120;59.304;18.294;2023-04-03T09:49:26;103582.72;;;3.68;52.91
76311;BME280;65120;59.304;18.294;2023-04-03T09:51:53;103584.59;;;3.70;53.81
76311;BME280;65120;59.304;18.294;2023-04-03T09:54:33;103577.00;;;3.73;53.66
76311;BME280;65120;59.304;18.294;2023-04-03T09:57:07;103570.19;;;3.75;53.43
76311;BME280;65120;59.304;18.294;2023-04-03T09:59:38;103573.16;;;3.81;52.93
76311;BME280;65120;59.304;18.294;2023-04-03T10:02:22;103562.06;;;3.84;53.25
76311;BME280;65120;59.304;18.294;2023-04-03T10:04:50;103559.47;;;3.84;53.32
76311;BME280;65120;59.304;18.294;2023-04-03T10:07:28;103553.09;;;3.94;53.33
76311;BME280;65120;59.304;18.294;2023-04-03T10:09:56;103551.34;;;3.93;52.88
76311;BME280;65120;59.304;18.294;2023-04-03T10:12:23;103555.13;;;3.99;52.99
76311;BME280;65120;59.304;18.294;2023-04-03T10:14:57;103554.41;;;4.02;52.64
76311;BME280;65120;59.304;18.294;2023-04-03T10:17:32;103546.81;;;4.05;53.13
76311;BME280;65120;59.304;18.294;2023-04-03T10:20:07;103545.19;;;4.07;52.21
76311;BME280;65120;59.304;18.294;2023-04-03T10:22:42;103547.03;;;4.10;51.85
76311;BME280;65120;59.304;18.294;2023-04-03T10:25:18;103524.25;;;4.02;52.30
76311;BME280;65120;59.304;18.294;2023-04-03T10:27:53;103537.75;;;4.13;51.83
76311;BME280;65120;59.304;18.294;2023-04-03T10:30:38;103537.03;;;4.16;52.43
76311;BME280;65120;59.304;18.294;2023-04-03T10:33:33;103535.38;;;4.18;52.29
76311;BME280;65120;59.304;18.294;2023-04-03T10:36:09;103525.94;;;4.18;52.39
76311;BME280;65120;59.304;18.294;2023-04-03T10:38:45;103524.25;;;4.19;51.74
76311;BME280;65120;59.304;18.294;2023-04-03T10:41:17;103528.50;;;4.18;50.50
76311;BME280;65120;59.304;18.294;2023-04-03T10:43:59;103519.81;;;4.16;50.21
76311;BME280;65120;59.304;18.294;2023-04-03T10:46:35;103513.97;;;4.20;50.78
76311;BME280;65120;59.304;18.294;2023-04-03T10:49:11;103519.97;;;4.19;50.43
76311;BME280;65120;59.304;18.294;2023-04-03T10:51:43;103513.81;;;4.17;49.92
76311;BME280;65120;59.304;18.294;2023-04-03T10:54:11;103506.88;;;4.16;49.54
76311;BME280;65120;59.304;18.294;2023-04-03T10:56:41;103503.47;;;4.17;49.59
76311;BME280;65120;59.304;18.294;2023-04-03T10:59:21;103503.47;;;4.17;49.89
76311;BME280;65120;59.304;18.294;2023-04-03T11:01:54;103498.28;;;4.17;49.71
76311;BME280;65120;59.304;18.294;2023-04-03T11:04:24;103489.72;;;4.18;50.06
76311;BME280;65120;59.304;18.294;2023-04-03T11:06:59;103490.53;;;4.17;50.01
76311;BME280;65120;59.304;18.294;2023-04-03T11:09:28;103483.59;;;4.16;49.90
76311;BME280;65120;59.304;18.294;2023-04-03T11:12:03;103488.66;;;4.15;49.02
76311;BME280;65120;59.304;18.294;2023-04-03T11:14:32;103483.44;;;4.13;48.82
76311;BME280;65120;59.304;18.294;2023-04-03T11:17:21;103480.03;;;4.14;49.44
76311;BME280;65120;59.304;18.294;2023-04-03T11:19:57;103460.94;;;4.12;47.02
76311;BME280;65120;59.304;18.294;2023-04-03T11:22:29;103460.16;;;4.13;48.34
76311;BME280;65120;59.304;18.294;2023-04-03T11:25:03;103462.75;;;4.13;48.27
76311;BME280;65120;59.304;18.294;2023-04-03T11:27:35;103458.50;;;4.15;48.45
76311;BME280;65120;59.304;18.294;2023-04-03T11:30:07;103458.50;;;4.15;46.60
76311;BME280;65120;59.304;18.294;2023-04-03T11:32:54;103454.31;;;4.17;46.86
76311;BME280;65120;59.304;18.294;2023-04-03T11:35:27;103456.91;;;4.17;47.23
76311;BME280;65120;59.304;18.294;2023-04-03T11:37:55;103457.00;;;4.19;47.15
76311;BME280;65120;59.304;18.294;2023-04-03T11:40:25;103450.16;;;4.21;47.81
76311;BME280;65120;59.304;18.294;2023-04-03T11:42:54;103448.50;;;4.21;46.33
76311;BME280;65120;59.304;18.294;2023-04-03T11:45:27;103443.22;;;4.20;46.17
76311;BME280;65120;59.304;18.294;2023-04-03T11:47:59;103447.53;;;4.19;46.25
76311;BME280;65120;59.304;18.294;2023-04-03T11:50:45;103437.19;;;4.19;46.61
76311;BME280;65120;59.304;18.294;2023-04-03T11:53:33;103434.59;;;4.19;46.76
76311;BME280;65120;59.304;18.294;2023-04-03T12:01:53;103433.47;;;4.14;46.53
76311;BME280;65120;59.304;18.294;2023-04-03T12:04:24;103436.94;;;4.15;46.36
76311;BME280;65120;59.304;18.294;2023-04-03T12:07:12;103435.22;;;4.15;46.90
76311;BME280;65120;59.304;18.294;2023-04-03T12:10:00;103427.41;;;4.14;46.87
76311;BME280;65120;59.304;18.294;2023-04-03T12:12:35;103431.69;;;4.13;47.08
76311;BME280;65120;59.304;18.294;2023-04-03T12:15:44;103422.13;;;4.12;46.47
76311;BME280;65120;59.304;18.294;2023-04-03T12:18:42;103410.03;;;4.11;46.35
76311;BME280;65120;59.304;18.294;2023-04-03T12:21:11;103412.63;;;4.11;46.02
76311;BME280;65120;59.304;18.294;2023-04-03T12:24:01;103410.84;;;4.10;46.20
76311;BME280;65120;59.304;18.294;2023-04-03T12:26:32;103410.03;;;4.11;46.58
76311;BME280;65120;59.304;18.294;2023-04-03T12:29:10;103406.56;;;4.11;46.37
76311;BME280;65120;59.304;18.294;2023-04-03T12:31:44;103402.25;;;4.11;44.41
76311;BME280;65120;59.304;18.294;2023-04-03T12:34:24;103389.34;;;4.11;45.36
76311;BME280;65120;59.304;18.294;2023-04-03T12:37:02;103391.09;;;4.12;44.96
76311;BME280;65120;59.304;18.294;2023-04-03T12:39:48;103394.59;;;4.13;44.67
76311;BME280;65120;59.304;18.294;2023-04-03T12:42:29;103382.53;;;4.13;44.39
76311;BME280;65120;59.304;18.294;2023-04-03T12:45:02;103392.06;;;4.14;43.48
76311;BME280;65120;59.304;18.294;2023-04-03T12:47:37;103386.91;;;4.14;43.67
76311;BME280;65120;59.304;18.294;2023-04-03T12:50:18;103380.91;;;4.15;44.64
76311;BME280;65120;59.304;18.294;2023-04-03T12:52:54;103381.88;;;4.17;44.45
76311;BME280;65120;59.304;18.294;2023-04-03T12:55:23;103391.41;;;4.18;43.52
76311;BME280;65120;59.304;18.294;2023-04-03T12:57:50;103380.91;;;4.15;42.62
76311;BME280;65120;59.304;18.294;2023-04-03T13:00:32;103381.88;;;4.17;42.58
76311;BME280;65120;59.304;18.294;2023-04-03T13:03:01;103374.94;;;4.16;42.86
76311;BME280;65120;59.304;18.294;2023-04-03T13:05:30;103373.22;;;4.17;43.08
76311;BME280;65120;59.304;18.294;2023-04-03T13:08:02;103370.66;;;4.17;42.46
76311;BME280;65120;59.304;18.294;2023-04-03T13:10:30;103367.97;;;4.15;42.56